3AR8 weather

River Acres Airport
Heber Springs, Arkansas, United States

Public forecast

Using degrees Fahrenheit for public forecast. Weather courtesy of forecast.io.

Closest aviation weather report (METAR) to River Acres Airport

Closest report is Searcy Municipal Airport, 19.2 nm (35.6 km) SE. Retrieved 2020/08/05 15:56 UTC (48 minutes ago):

KSRC 051556Z AUTO 06004KT 10SM FEW065 26/15 A3011 RMK AO2 SLP194 T02560150

Closest aviation forecast (TAF) to River Acres Airport

Closest forecast is Little Rock Air Force Base, 34.6 nm (64.0 km) SSW. Retrieved 2020/08/05 15:24 UTC (1 hour ago):

TAF KLRF 051500Z 0515/0621 VRB06KT 9999 FEW045 SCT240 QNH2999INS TX30/0521Z TN18/0611Z